Buoy 62910

sailwx.info

Track history (hours):
 
Tides and Currents Weather Stations Pressure Air Temp Water Temp Dewpoint Dewpoint Depression Visibility Wind Speed Wind Dir Waves Ship Positions

Drifting buoy 62910

Last reported at 2014-Aug-22 08:28 UTC. Time now 2014-Aug-22 09:55 UTC.
Position N 37°38' E 004°09'.

Water temperature 25.3 ° C

Date/timePositionNaut miles runAvg speedWind from/ knotsBaromVisibWave heightAir tempDewpointWater temp
2014-Aug-22 08:28N 37°38' E 004°09'0 0.0 25.3
2014-Aug-22 07:21N 37°38' E 004°09'0 0.1 25.3
2014-Aug-22 06:03N 37°38' E 004°09'1 3.7 25.2
2014-Aug-22 05:47N 37°38' E 004°10'1 2.5 25.3
2014-Aug-22 05:33N 37°38' E 004°09'0 2.3 25.3
2014-Aug-22 05:22N 37°38' E 004°09'1 0.5 25.5
2014-Aug-22 04:20N 37°38' E 004°10'0 0.0 25.6
2014-Aug-22 04:04N 37°38' E 004°10'0 1.0 25.6
2014-Aug-22 03:50N 37°38' E 004°10'0 0.0 25.6
2014-Aug-22 03:47N 37°38' E 004°10'1 1.2 25.7
2014-Aug-22 03:11N 37°37' E 004°11'0 2.9 25.7
2014-Aug-22 03:06N 37°37' E 004°11'114.3 25.7
2014-Aug-22 03:01N 37°37' E 004°12'0 0.0
2014-Aug-22 01:29N 37°37' E 004°12'229.2 25.9
2014-Aug-22 01:25N 37°36' E 004°14'0 0.0 25.9
2014-Aug-21 22:43N 37°36' E 004°14'1 9.0 26.0
2014-Aug-21 22:36N 37°36' E 004°16'0 0.0 26.0
2014-Aug-21 21:55N 37°36' E 004°16'0 3.2 26.0
2014-Aug-21 21:50N 37°36' E 004°16'0 0.0 26.0
2014-Aug-21 21:46N 37°36' E 004°16'0 0.0 26.0
2014-Aug-21 21:04N 37°36' E 004°16'1 3.9 26.0
2014-Aug-21 20:53N 37°35' E 004°17'0 0.0 26.0
2014-Aug-21 20:15N 37°35' E 004°17'1 3.0
2014-Aug-21 20:02N 37°36' E 004°17'0 0.0 26.2
2014-Aug-21 19:22N 37°36' E 004°17'0 3.7 26.3
2014-Aug-21 19:14N 37°36' E 004°18'0 0.0
2014-Aug-21 18:29N 37°36' E 004°18'1 1.5 26.4
2014-Aug-21 17:48N 37°36' E 004°19'1 0.8 26.4
2014-Aug-21 17:06N 37°36' E 004°19'0 0.8 26.6
2014-Aug-21 16:50N 37°36' E 004°19'0 0.3 26.6
2014-Aug-21 16:11N 37°36' E 004°19'0 0.2 26.8
2014-Aug-21 15:27N 37°36' E 004°19'0 0.3 26.9
2014-Aug-21 14:46N 37°36' E 004°19'0 0.0 26.9
2014-Aug-21 14:27N 37°36' E 004°19'0 0.2 27.0
2014-Aug-21 13:42N 37°36' E 004°19'1 1.3 26.9
2014-Aug-21 13:07N 37°36' E 004°18'2 1.1 26.9
2014-Aug-21 11:21N 37°34' E 004°20'0 0.0 26.5
2014-Aug-21 10:33N 37°34' E 004°20'0 0.1 26.4
2014-Aug-21 09:44N 37°34' E 004°20'0 0.0
2014-Aug-21 09:40N 37°34' E 004°20'0 0.0 26.3
2014-Aug-21 09:33N 37°34' E 004°20'0 0.0 26.3
2014-Aug-21 08:54N 37°34' E 004°20'113.1 26.2
2014-Aug-21 08:49N 37°33' E 004°21'0 0.0 26.2
2014-Aug-21 06:31N 37°33' E 004°21'0 0.7 26.1
2014-Aug-21 06:26N 37°34' E 004°21'0 1.2 26.1
2014-Aug-21 06:17N 37°33' E 004°21'1 1.0 26.1
2014-Aug-21 05:44N 37°33' E 004°22'0 2.4 26.1
2014-Aug-21 05:37N 37°33' E 004°22'0 0.0 26.1
2014-Aug-21 04:49N 37°33' E 004°22'0 1.4 26.1
2014-Aug-21 04:36N 37°33' E 004°22'0 0.7 26.2
2014-Aug-21 04:03N 37°33' E 004°23'0 0.0 26.1
2014-Aug-21 03:59N 37°33' E 004°23'1 1.0 26.1
2014-Aug-21 03:17N 37°33' E 004°24'1 0.3 26.1
2014-Aug-21 01:38N 37°33' E 004°24'1 0.3 26.2
2014-Aug-20 23:01N 37°34' E 004°25'0 0.0 26.4
2014-Aug-20 22:17N 37°34' E 004°25'0 3.0 26.3
2014-Aug-20 22:08N 37°34' E 004°25'0 0.0 26.3
2014-Aug-20 21:24N 37°34' E 004°25'0 1.5 26.4
2014-Aug-20 21:18N 37°34' E 004°25'0 4.6 26.4
2014-Aug-20 21:13N 37°34' E 004°25'0 0.2 26.4
2014-Aug-20 20:29N 37°34' E 004°25'0 0.0 26.4
2014-Aug-20 19:41N 37°34' E 004°25'0 0.6 26.6
2014-Aug-20 19:02N 37°34' E 004°25'0 0.0 26.6
2014-Aug-20 18:57N 37°34' E 004°25'0 0.6 26.6
2014-Aug-20 18:15N 37°34' E 004°25'0 6.5 26.7
2014-Aug-20 18:11N 37°34' E 004°25'1 0.8 26.7
2014-Aug-20 17:18N 37°33' E 004°25'0 0.0 26.7
2014-Aug-20 16:36N 37°33' E 004°25'0 0.0 26.7
2014-Aug-20 15:39N 37°33' E 004°25'0 3.2 26.8
2014-Aug-20 15:34N 37°33' E 004°25'0 0.0 26.8
2014-Aug-20 14:53N 37°33' E 004°25'1 0.8 26.8
2014-Aug-20 13:57N 37°33' E 004°26'0 1.7 26.7
2014-Aug-20 13:50N 37°33' E 004°26'0 0.0 26.7
2014-Aug-20 13:18N 37°33' E 004°26'0 0.0 26.7
2014-Aug-20 13:13N 37°33' E 004°26'0 0.3 26.6
2014-Aug-20 11:41N 37°33' E 004°26'0 1.5 26.4
2014-Aug-20 11:35N 37°32' E 004°26'0 3.2 26.4
2014-Aug-20 11:28N 37°32' E 004°26'0 0.1
2014-Aug-20 10:53N 37°32' E 004°26'0 4.1 26.3
2014-Aug-20 10:48N 37°32' E 004°26'0 0.0 26.3
2014-Aug-20 10:02N 37°32' E 004°26'1 1.5 26.2
2014-Aug-20 09:09N 37°31' E 004°28'1 1.0 26.1
2014-Aug-20 08:16N 37°32' E 004°28'1 0.4 26.0
2014-Aug-20 06:53N 37°32' E 004°29'0 0.0 26.0
2014-Aug-20 06:49N 37°32' E 004°29'0 0.4 26.0
2014-Aug-20 05:49N 37°32' E 004°29'0 6.6 26.0
2014-Aug-20 05:46N 37°33' E 004°29'0 0.0 26.0
2014-Aug-20 05:08N 37°33' E 004°29'131.0 26.0
2014-Aug-20 05:07N 37°33' E 004°29'0 0.0 26.0
2014-Aug-20 04:17N 37°33' E 004°29'0 0.0 26.0
2014-Aug-20 04:10N 37°33' E 004°29'0 0.8 26.0
2014-Aug-20 04:03N 37°33' E 004°29'0 0.0 26.0
2014-Aug-20 03:30N 37°33' E 004°29'1 0.3 26.0
2014-Aug-20 01:52N 37°34' E 004°29'0 0.0 26.0
2014-Aug-20 01:49N 37°34' E 004°29'0 4.2 26.0
2014-Aug-20 01:42N 37°33' E 004°29'0 0.0 26.0
2014-Aug-20 00:08N 37°33' E 004°29'111.5 26.0
2014-Aug-20 00:05N 37°33' E 004°29'0 0.0 26.0
2014-Aug-19 22:31N 37°33' E 004°29'0 0.0 26.1
2014-Aug-19 21:45N 37°33' E 004°29'0 0.0
2014-Aug-19 21:40N 37°33' E 004°29'0 0.0 26.1
2014-Aug-19 21:36N 37°33' E 004°29'0 0.0 26.1
2014-Aug-19 20:57N 37°33' E 004°29'0 0.0 26.1
2014-Aug-19 20:48N 37°33' E 004°29'0 0.0
2014-Aug-19 20:03N 37°33' E 004°29'0 2.4 26.2
2014-Aug-19 19:57N 37°33' E 004°29'0 0.0 26.2
2014-Aug-19 19:29N 37°33' E 004°29'1 0.9 26.2
2014-Aug-19 18:36N 37°32' E 004°29'0 0.0 26.3
2014-Aug-19 17:55N 37°32' E 004°29'0 0.0 26.4
2014-Aug-19 17:50N 37°32' E 004°29'0 0.8 26.4
2014-Aug-19 17:27N 37°32' E 004°30'0 0.7 26.5
2014-Aug-19 16:59N 37°32' E 004°30'0 0.1 26.5
2014-Aug-19 15:50N 37°32' E 004°30'0 0.8 26.6
2014-Aug-19 15:18N 37°31' E 004°30'0 0.0 26.7
2014-Aug-19 15:06N 37°31' E 004°30'0 0.0 26.7
2014-Aug-19 14:07N 37°31' E 004°30'1 0.8 26.6
2014-Aug-19 13:27N 37°32' E 004°31'0 0.3 26.5
2014-Aug-19 11:58N 37°32' E 004°31'0 0.0 26.3
2014-Aug-19 11:44N 37°32' E 004°31'0 4.6
2014-Aug-19 11:41N 37°32' E 004°31'0 0.7 26.2
2014-Aug-19 11:14N 37°32' E 004°32'0 0.0 26.1
2014-Aug-19 10:21N 37°32' E 004°32'1 1.4 26.0
2014-Aug-19 09:32N 37°33' E 004°30'0 0.0 26.0
2014-Aug-19 09:28N 37°33' E 004°30'0 0.0
2014-Aug-19 08:44N 37°33' E 004°30'0 0.0 26.0
2014-Aug-19 08:39N 37°33' E 004°30'1 0.9 26.0
2014-Aug-19 07:18N 37°32' E 004°32'0 0.1 25.9
2014-Aug-19 06:02N 37°32' E 004°32'1 6.1 25.9
2014-Aug-19 05:56N 37°33' E 004°32'0 0.0 25.9
2014-Aug-19 05:39N 37°33' E 004°32'1 4.4 25.9
2014-Aug-19 05:32N 37°33' E 004°31'0 0.0
2014-Aug-19 04:23N 37°33' E 004°31'1 1.5 25.9
2014-Aug-19 03:58N 37°32' E 004°32'1 2.0 25.9
2014-Aug-19 03:39N 37°33' E 004°32'1 0.6 25.9
2014-Aug-19 02:42N 37°33' E 004°31'0 0.0 25.9
2014-Aug-19 02:37N 37°33' E 004°31'0 0.0 25.9
2014-Aug-19 02:03N 37°33' E 004°31'116.4 25.9
2014-Aug-19 02:00N 37°33' E 004°32'0 0.0 25.9
2014-Aug-19 00:21N 37°33' E 004°32'0 0.0 25.9
2014-Aug-18 22:06N 37°33' E 004°32'1 5.0 25.9
2014-Aug-18 21:58N 37°32' E 004°32'0 0.0 25.9
2014-Aug-18 21:17N 37°32' E 004°32'115.5 26.0
2014-Aug-18 21:12N 37°33' E 004°33'0 0.5 26.0
2014-Aug-18 20:17N 37°32' E 004°33'0 0.0 26.0
2014-Aug-18 19:57N 37°32' E 004°33'1 1.3 26.0
2014-Aug-18 19:29N 37°33' E 004°34'0 0.0 26.0
2014-Aug-18 18:43N 37°33' E 004°34'0 0.0 26.0
2014-Aug-18 18:20N 37°33' E 004°34'0 0.2 26.0
2014-Aug-18 17:20N 37°32' E 004°33'0 0.0 26.0
2014-Aug-18 16:45N 37°32' E 004°33'0 0.6 26.0
2014-Aug-18 16:02N 37°32' E 004°33'0 0.3 26.0
2014-Aug-18 15:15N 37°32' E 004°33'0 0.1 26.0
2014-Aug-18 14:15N 37°32' E 004°33'1 1.3 26.0
2014-Aug-18 13:39N 37°31' E 004°33'1 0.5 26.0
2014-Aug-18 11:53N 37°31' E 004°34'0 1.4 26.0
2014-Aug-18 11:32N 37°31' E 004°34'0 0.2
2014-Aug-18 10:43N 37°31' E 004°34'0 0.0 25.9
2014-Aug-18 09:59N 37°31' E 004°34'0 0.0 25.9
2014-Aug-18 09:55N 37°31' E 004°34'0 0.3 25.9
2014-Aug-18 09:00N 37°30' E 004°35'1 1.4 25.9
2014-Aug-18 08:13N 37°30' E 004°36'0 0.0 25.9
2014-Aug-18 06:12N 37°30' E 004°36'112.1 25.9
2014-Aug-18 06:07N 37°30' E 004°37'0 0.0 25.9
2014-Aug-18 06:00N 37°30' E 004°37'0 0.0 25.9
2014-Aug-18 04:37N 37°30' E 004°37'0 0.9 25.9
2014-Aug-18 04:33N 37°30' E 004°37'1 8.3 25.9
2014-Aug-18 04:26N 37°30' E 004°36'0 2.4 25.9
2014-Aug-18 04:21N 37°30' E 004°36'2 3.7 25.9
2014-Aug-18 03:46N 37°28' E 004°36'0 0.0
2014-Aug-18 02:55N 37°28' E 004°36'236.9 25.9
2014-Aug-18 02:51N 37°30' E 004°37'0 0.0 25.9
2014-Aug-18 02:14N 37°30' E 004°37'1 4.5 26.0
2014-Aug-18 02:07N 37°30' E 004°37'0 0.0 26.0
2014-Aug-18 00:31N 37°30' E 004°37'0 4.2 26.0
2014-Aug-18 00:24N 37°30' E 004°37'0 0.0
2014-Aug-17 22:24N 37°30' E 004°37'0 5.9 26.0
2014-Aug-17 22:19N 37°29' E 004°37'0 0.0 26.0
2014-Aug-17 21:38N 37°29' E 004°37'0 2.3 26.0
2014-Aug-17 21:29N 37°29' E 004°37'0 0.0 26.0
2014-Aug-17 20:36N 37°29' E 004°37'0 0.0 26.0
2014-Aug-17 19:56N 37°29' E 004°37'110.3 26.0
2014-Aug-17 19:51N 37°29' E 004°38'0 0.0 26.0
2014-Aug-17 19:05N 37°29' E 004°38'0 0.0 26.1
2014-Aug-17 18:52N 37°29' E 004°38'0 0.3 26.1
2014-Aug-17 17:47N 37°29' E 004°38'1 1.1 26.1
2014-Aug-17 17:12N 37°28' E 004°38'0 5.4 26.1
2014-Aug-17 17:08N 37°28' E 004°38'0 0.0
2014-Aug-17 16:11N 37°28' E 004°38'022.4 26.1
2014-Aug-17 16:10N 37°28' E 004°37'1 0.5 26.1
2014-Aug-17 14:33N 37°28' E 004°38'0 0.5 26.2
2014-Aug-17 13:50N 37°28' E 004°39'0 0.3 26.2
2014-Aug-17 12:08N 37°28' E 004°38'1 7.6 26.1
2014-Aug-17 12:02N 37°28' E 004°39'0 0.0 26.1
2014-Aug-17 11:06N 37°28' E 004°39'0 1.7 26.1
2014-Aug-17 11:02N 37°28' E 004°39'1 0.4 26.1
2014-Aug-17 09:27N 37°28' E 004°39'0 0.0 26.1
2014-Aug-17 09:22N 37°28' E 004°39'1 0.6 26.1
2014-Aug-17 08:30N 37°28' E 004°39'0 0.6 26.1
2014-Aug-17 07:39N 37°28' E 004°39'0 0.0 26.1
2014-Aug-17 06:43N 37°28' E 004°39'0 1.1 26.0
2014-Aug-17 06:25N 37°28' E 004°39'1 0.8 26.1
2014-Aug-17 05:04N 37°28' E 004°38'1 4.6 26.1
2014-Aug-17 04:46N 37°28' E 004°40'0 0.0 26.1
2014-Aug-17 04:41N 37°28' E 004°40'0 0.0 26.1
2014-Aug-17 04:00N 37°28' E 004°40'0 0.0 26.1
2014-Aug-17 03:05N 37°28' E 004°40'0 0.0 26.1
2014-Aug-17 03:02N 37°28' E 004°40'0 0.6 26.1
2014-Aug-17 02:28N 37°28' E 004°39'0 0.0 26.2
2014-Aug-17 02:21N 37°28' E 004°39'0 0.3 26.2
2014-Aug-17 00:42N 37°28' E 004°39'220.7 26.2
2014-Aug-17 00:37N 37°26' E 004°38'0 0.0 26.2
2014-Aug-16 22:42N 37°26' E 004°38'0 0.0 26.2
2014-Aug-16 21:53N 37°26' E 004°38'0 0.0 26.3
2014-Aug-16 21:05N 37°26' E 004°38'118.7 26.3
2014-Aug-16 21:01N 37°26' E 004°40'0 0.0 26.3
2014-Aug-16 20:56N 37°26' E 004°40'0 0.1 26.3
2014-Aug-16 20:08N 37°26' E 004°39'1 1.3 26.3
2014-Aug-16 19:24N 37°26' E 004°41'0 0.0 26.3
2014-Aug-16 19:17N 37°26' E 004°41'0 0.0 26.3
2014-Aug-16 18:12N 37°26' E 004°41'0 0.0 26.3
2014-Aug-16 17:49N 37°26' E 004°41'1 6.1 26.3
2014-Aug-16 17:42N 37°26' E 004°41'0 0.0 26.3
2014-Aug-16 16:31N 37°26' E 004°41'0 0.0 26.4
2014-Aug-16 16:22N 37°26' E 004°41'0 0.3 26.4
2014-Aug-16 14:50N 37°26' E 004°42'0 3.7 26.4
2014-Aug-16 14:45N 37°26' E 004°42'1 6.1 26.4
2014-Aug-16 14:36N 37°26' E 004°43'0 0.3 26.4
2014-Aug-16 14:01N 37°26' E 004°43'1 0.4 26.4
2014-Aug-16 12:15N 37°27' E 004°43'0 0.0 26.4
2014-Aug-16 11:22N 37°27' E 004°43'1 1.8 26.3
2014-Aug-16 10:34N 37°26' E 004°41'0 0.0 26.3
2014-Aug-16 08:59N 37°26' E 004°41'1 5.9 26.3
2014-Aug-16 08:52N 37°25' E 004°41'0 0.0 26.3
2014-Aug-16 07:11N 37°25' E 004°41'0 0.0 26.4
2014-Aug-16 06:50N 37°25' E 004°41'0 0.0 26.4
2014-Aug-16 06:32N 37°25' E 004°41'0 0.0 26.4
2014-Aug-16 05:34N 37°25' E 004°41'0 0.7 26.4
2014-Aug-16 05:11N 37°25' E 004°40'1 3.4 26.4
2014-Aug-16 04:55N 37°25' E 004°41'0 0.0 26.4
2014-Aug-16 04:07N 37°25' E 004°41'0 0.0 26.4
2014-Aug-16 03:53N 37°25' E 004°41'0 0.7 26.4
2014-Aug-16 03:13N 37°24' E 004°40'1 1.1 26.4
2014-Aug-16 02:32N 37°24' E 004°41'215.2 26.4
2014-Aug-16 02:25N 37°23' E 004°43'0 0.0 26.5
2014-Aug-16 00:49N 37°23' E 004°43'0 0.0 26.5
2014-Aug-15 22:18N 37°23' E 004°43'1 9.0 26.6
2014-Aug-15 22:14N 37°24' E 004°42'0 0.0 26.6
2014-Aug-15 21:28N 37°24' E 004°42'0 3.3 26.6
2014-Aug-15 21:19N 37°24' E 004°43'2 2.1 26.6
2014-Aug-15 20:33N 37°25' E 004°44'0 0.0 26.6
2014-Aug-15 20:30N 37°25' E 004°44'0 0.0 26.6
2014-Aug-15 19:54N 37°25' E 004°44'1 0.4 26.6
2014-Aug-15 18:17N 37°25' E 004°43'0 0.0 26.6
2014-Aug-15 18:12N 37°25' E 004°43'0 0.0 26.7
2014-Aug-15 16:56N 37°25' E 004°43'0 0.0 26.7
2014-Aug-15 16:35N 37°25' E 004°43'1 0.5 26.7
2014-Aug-15 15:15N 37°25' E 004°42'1 2.0 26.7
2014-Aug-15 14:56N 37°25' E 004°42'1 1.6 26.7
2014-Aug-15 14:12N 37°24' E 004°41'0 0.0 26.7
2014-Aug-15 12:29N 37°24' E 004°41'0 6.1 26.7
2014-Aug-15 12:27N 37°24' E 004°41'0 0.7 26.7
2014-Aug-15 11:43N 37°24' E 004°41'0 0.0 26.6
2014-Aug-15 10:57N 37°24' E 004°41'1 0.7 26.6
2014-Aug-15 10:08N 37°23' E 004°41'0 1.4 26.6
2014-Aug-15 10:03N 37°23' E 004°41'0 0.6 26.6
2014-Aug-15 09:20N 37°23' E 004°40'0 1.6 26.6
2014-Aug-15 09:13N 37°23' E 004°40'0 0.0 26.6
2014-Aug-15 09:10N 37°23' E 004°40'1 1.3 26.6
2014-Aug-15 08:20N 37°22' E 004°41'0 0.0 26.6
2014-Aug-15 07:15N 37°22' E 004°41'0 0.0
2014-Aug-15 06:43N 37°22' E 004°41'0 0.0
2014-Aug-15 06:06N 37°22' E 004°41'1 1.3 26.6
2014-Aug-15 05:36N 37°22' E 004°42'0 0.3 26.6
2014-Aug-15 05:06N 37°22' E 004°42'0 0.4 26.6
2014-Aug-15 04:23N 37°22' E 004°42'027.0 26.6
2014-Aug-15 04:22N 37°22' E 004°42'0 0.0 26.6
2014-Aug-15 03:52N 37°22' E 004°42'0 0.0 26.6
2014-Aug-15 03:29N 37°22' E 004°42'0 6.7
2014-Aug-15 03:25N 37°22' E 004°43'2 2.2 26.7
2014-Aug-15 02:43N 37°23' E 004°42'0 0.0 26.7
2014-Aug-15 01:06N 37°23' E 004°42'112.5 26.7
2014-Aug-15 01:00N 37°24' E 004°41'0 0.0 26.7
2014-Aug-14 21:48N 37°24' E 004°41'110.1 26.8
2014-Aug-14 21:42N 37°24' E 004°43'124.8 26.8
2014-Aug-14 21:39N 37°24' E 004°41'0 0.0 26.8
2014-Aug-14 21:00N 37°24' E 004°41'1 5.5 26.8
2014-Aug-14 20:53N 37°24' E 004°41'0 0.0 26.8
2014-Aug-14 20:23N 37°24' E 004°41'0 0.0 26.9
2014-Aug-14 20:05N 37°24' E 004°41'0 5.8 26.9
2014-Aug-14 20:00N 37°24' E 004°40'0 0.0 26.9
2014-Aug-14 19:18N 37°24' E 004°40'0 0.0 26.9
2014-Aug-14 18:51N 37°24' E 004°40'0 0.0 26.9
2014-Aug-14 18:46N 37°24' E 004°40'1 0.4 26.9
2014-Aug-14 17:17N 37°23' E 004°39'0 0.0 26.9
2014-Aug-14 17:03N 37°23' E 004°39'1 3.6 27.0
2014-Aug-14 16:47N 37°23' E 004°39'0 0.0 27.0
2014-Aug-14 15:40N 37°23' E 004°39'0 0.5 27.1
2014-Aug-14 15:03N 37°22' E 004°39'1 1.1 27.1
2014-Aug-14 14:22N 37°22' E 004°39'0 0.0 27.1
2014-Aug-14 12:44N 37°22' E 004°39'0 1.9
2014-Aug-14 12:40N 37°21' E 004°39'1 8.5 27.0
2014-Aug-14 12:36N 37°21' E 004°40'0 0.0 27.0
2014-Aug-14 11:13N 37°21' E 004°40'0 0.0 27.0
2014-Aug-14 10:58N 37°21' E 004°40'0 0.1 27.0
2014-Aug-14 10:26N 37°21' E 004°40'1 8.9 27.0
2014-Aug-14 10:22N 37°22' E 004°40'0 0.0 27.0
2014-Aug-14 09:42N 37°22' E 004°40'0 0.0 27.0
2014-Aug-14 08:47N 37°22' E 004°40'0 2.8 27.0
2014-Aug-14 08:43N 37°22' E 004°40'1 1.2 27.0
2014-Aug-14 07:38N 37°23' E 004°40'0 0.0 27.0
2014-Aug-14 06:38N 37°23' E 004°40'2 4.0 27.0
2014-Aug-14 06:04N 37°23' E 004°43'0 0.0 27.0
2014-Aug-14 06:01N 37°23' E 004°43'3 3.9 27.0
2014-Aug-14 05:18N 37°24' E 004°40'0 0.0 27.0
2014-Aug-14 04:57N 37°24' E 004°40'0 0.0 27.0
2014-Aug-14 04:18N 37°24' E 004°40'0 0.2 27.0
2014-Aug-14 03:36N 37°24' E 004°40'1 1.7 27.0
2014-Aug-14 03:15N 37°24' E 004°39'0 0.0 27.0
2014-Aug-14 02:59N 37°24' E 004°39'0 0.0 27.0
2014-Aug-14 02:53N 37°24' E 004°39'1 0.7 27.0
2014-Aug-14 01:16N 37°25' E 004°38'0 4.5 27.0
2014-Aug-14 01:13N 37°25' E 004°38'2 0.6 27.0
2014-Aug-13 22:04N 37°24' E 004°35'0 0.0 27.2
2014-Aug-13 21:21N 37°24' E 004°35'0 2.4 27.2
2014-Aug-13 21:14N 37°24' E 004°35'0 0.0 27.2
2014-Aug-13 20:28N 37°24' E 004°35'0 1.1 27.2
2014-Aug-13 20:23N 37°24' E 004°35'0 0.5 27.2
2014-Aug-13 19:39N 37°24' E 004°36'0 3.7 27.2
2014-Aug-13 19:32N 37°24' E 004°36'0 0.0 27.2
2014-Aug-13 19:19N 37°24' E 004°36'0 0.1 27.2
2014-Aug-13 17:46N 37°24' E 004°36'0 2.4 27.2
2014-Aug-13 17:35N 37°23' E 004°36'0 0.5 27.2
2014-Aug-13 16:56N 37°24' E 004°36'0 0.0 27.3
2014-Aug-13 16:09N 37°24' E 004°36'0 0.0 27.3
2014-Aug-13 15:16N 37°24' E 004°36'0 0.6 27.3
2014-Aug-13 14:31N 37°24' E 004°37'1 0.6 27.2
2014-Aug-13 12:54N 37°25' E 004°36'1 0.5 27.2
2014-Aug-13 10:45N 37°25' E 004°36'1 0.8 27.2
2014-Aug-13 10:01N 37°26' E 004°36'0 0.0 27.2
2014-Aug-13 09:58N 37°26' E 004°36'1 0.8 27.2
2014-Aug-13 09:10N 37°26' E 004°35'0 0.0 27.1
2014-Aug-13 09:05N 37°26' E 004°35'1 0.7 27.1
2014-Aug-13 08:20N 37°27' E 004°35'0 2.2 27.1
2014-Aug-13 08:12N 37°27' E 004°35'0 0.0 27.1
2014-Aug-13 07:08N 37°27' E 004°35'0 0.0 27.1
2014-Aug-13 06:29N 37°27' E 004°35'0 0.0 27.1
2014-Aug-13 06:24N 37°27' E 004°35'1 0.5 27.1
2014-Aug-13 03:48N 37°27' E 004°33'0 0.4 27.2
2014-Aug-13 03:10N 37°27' E 004°33'0 0.0 27.3
2014-Aug-13 03:06N 37°27' E 004°33'1 4.8 27.3
2014-Aug-13 02:59N 37°26' E 004°33'0 0.0
2014-Aug-13 01:27N 37°26' E 004°33'0 0.0 27.5
2014-Aug-13 01:24N 37°26' E 004°33'1 0.3 27.5
2014-Aug-12 22:29N 37°25' E 004°33'0 0.7 27.7
2014-Aug-12 22:25N 37°25' E 004°33'0 0.0 27.7
2014-Aug-12 21:41N 37°25' E 004°33'0 5.2 27.9
2014-Aug-12 21:36N 37°26' E 004°33'0 0.0 27.9
2014-Aug-12 20:50N 37°26' E 004°33'0 0.0 27.9
2014-Aug-12 20:43N 37°26' E 004°33'0 0.2 28.0
2014-Aug-12 19:55N 37°26' E 004°33'0 4.7 28.0
2014-Aug-12 19:51N 37°26' E 004°33'121.9
2014-Aug-12 19:48N 37°25' E 004°34'0 0.0 28.0
2014-Aug-12 19:07N 37°25' E 004°34'1 8.4 28.0
2014-Aug-12 19:02N 37°26' E 004°34'0 0.0
2014-Aug-12 18:09N 37°26' E 004°34'0 0.0 28.2
2014-Aug-12 18:07N 37°26' E 004°34'0 0.4 28.2
2014-Aug-12 17:05N 37°26' E 004°34'1 1.4 28.1
2014-Aug-12 16:32N 37°27' E 004°34'0 0.0 28.3
2014-Aug-12 15:28N 37°27' E 004°34'0 4.9 28.6
2014-Aug-12 15:23N 37°27' E 004°34'0 0.0 28.6
2014-Aug-12 14:49N 37°27' E 004°34'0 5.2 28.5
2014-Aug-12 14:44N 37°28' E 004°34'0 0.0 28.4
2014-Aug-12 13:48N 37°28' E 004°34'0 5.6 28.4
2014-Aug-12 13:44N 37°28' E 004°33'0 0.0 28.4
2014-Aug-12 13:05N 37°28' E 004°33'0 0.0 28.5
2014-Aug-12 13:02N 37°28' E 004°33'1 0.5 28.7
2014-Aug-12 11:09N 37°28' E 004°32'0 4.3 27.6
2014-Aug-12 11:03N 37°29' E 004°32'0 0.0 27.6
2014-Aug-12 10:21N 37°29' E 004°32'0 4.0 27.5
2014-Aug-12 10:16N 37°29' E 004°32'0 0.0 27.5
2014-Aug-12 09:26N 37°29' E 004°32'1 0.7 27.4
2014-Aug-12 08:33N 37°28' E 004°31'   27.2
Track history (hours):
 
Tides and Currents Weather Stations Pressure Air Temp Water Temp Dewpoint Dewpoint Depression Visibility Wind Speed Wind Dir Waves Ship Positions

Drifting buoy 62910

Last reported at 2014-Aug-22 08:28 UTC. Time now 2014-Aug-22 09:55 UTC.
Position N 37°38' E 004°09'.

Water temperature 25.3 ° C

Date/timePositionNaut miles runAvg speedWind from/ knotsBaromVisibWave heightAir tempDewpointWater temp
2014-Aug-22 08:28N 37°38' E 004°09'0 0.0 25.3
2014-Aug-22 07:21N 37°38' E 004°09'0 0.1 25.3
2014-Aug-22 06:03N 37°38' E 004°09'1 3.7 25.2
2014-Aug-22 05:47N 37°38' E 004°10'1 2.5 25.3
2014-Aug-22 05:33N 37°38' E 004°09'0 2.3 25.3
2014-Aug-22 05:22N 37°38' E 004°09'1 0.5 25.5
2014-Aug-22 04:20N 37°38' E 004°10'0 0.0 25.6
2014-Aug-22 04:04N 37°38' E 004°10'0 1.0 25.6
2014-Aug-22 03:50N 37°38' E 004°10'0 0.0 25.6
2014-Aug-22 03:47N 37°38' E 004°10'1 1.2 25.7
2014-Aug-22 03:11N 37°37' E 004°11'0 2.9 25.7
2014-Aug-22 03:06N 37°37' E 004°11'114.3 25.7
2014-Aug-22 03:01N 37°37' E 004°12'0 0.0
2014-Aug-22 01:29N 37°37' E 004°12'229.2 25.9
2014-Aug-22 01:25N 37°36' E 004°14'0 0.0 25.9
2014-Aug-21 22:43N 37°36' E 004°14'1 9.0 26.0
2014-Aug-21 22:36N 37°36' E 004°16'0 0.0 26.0
2014-Aug-21 21:55N 37°36' E 004°16'0 3.2 26.0
2014-Aug-21 21:50N 37°36' E 004°16'0 0.0 26.0
2014-Aug-21 21:46N 37°36' E 004°16'0 0.0 26.0
2014-Aug-21 21:04N 37°36' E 004°16'1 3.9 26.0
2014-Aug-21 20:53N 37°35' E 004°17'0 0.0 26.0
2014-Aug-21 20:15N 37°35' E 004°17'1 3.0
2014-Aug-21 20:02N 37°36' E 004°17'0 0.0 26.2
2014-Aug-21 19:22N 37°36' E 004°17'0 3.7 26.3
2014-Aug-21 19:14N 37°36' E 004°18'0 0.0
2014-Aug-21 18:29N 37°36' E 004°18'1 1.5 26.4
2014-Aug-21 17:48N 37°36' E 004°19'1 0.8 26.4
2014-Aug-21 17:06N 37°36' E 004°19'0 0.8 26.6
2014-Aug-21 16:50N 37°36' E 004°19'0 0.3 26.6
2014-Aug-21 16:11N 37°36' E 004°19'0 0.2 26.8
2014-Aug-21 15:27N 37°36' E 004°19'0 0.3 26.9
2014-Aug-21 14:46N 37°36' E 004°19'0 0.0 26.9
2014-Aug-21 14:27N 37°36' E 004°19'0 0.2 27.0
2014-Aug-21 13:42N 37°36' E 004°19'1 1.3 26.9
2014-Aug-21 13:07N 37°36' E 004°18'2 1.1 26.9
2014-Aug-21 11:21N 37°34' E 004°20'0 0.0 26.5
2014-Aug-21 10:33N 37°34' E 004°20'0 0.1 26.4
2014-Aug-21 09:44N 37°34' E 004°20'0 0.0
2014-Aug-21 09:40N 37°34' E 004°20'0 0.0 26.3
2014-Aug-21 09:33N 37°34' E 004°20'0 0.0 26.3
2014-Aug-21 08:54N 37°34' E 004°20'113.1 26.2
2014-Aug-21 08:49N 37°33' E 004°21'0 0.0 26.2
2014-Aug-21 06:31N 37°33' E 004°21'0 0.7 26.1
2014-Aug-21 06:26N 37°34' E 004°21'0 1.2 26.1
2014-Aug-21 06:17N 37°33' E 004°21'1 1.0 26.1
2014-Aug-21 05:44N 37°33' E 004°22'0 2.4 26.1
2014-Aug-21 05:37N 37°33' E 004°22'0 0.0 26.1
2014-Aug-21 04:49N 37°33' E 004°22'0 1.4 26.1
2014-Aug-21 04:36N 37°33' E 004°22'0 0.7 26.2
2014-Aug-21 04:03N 37°33' E 004°23'0 0.0 26.1
2014-Aug-21 03:59N 37°33' E 004°23'1 1.0 26.1
2014-Aug-21 03:17N 37°33' E 004°24'1 0.3 26.1
2014-Aug-21 01:38N 37°33' E 004°24'1 0.3 26.2
2014-Aug-20 23:01N 37°34' E 004°25'0 0.0 26.4
2014-Aug-20 22:17N 37°34' E 004°25'0 3.0 26.3
2014-Aug-20 22:08N 37°34' E 004°25'0 0.0 26.3
2014-Aug-20 21:24N 37°34' E 004°25'0 1.5 26.4
2014-Aug-20 21:18N 37°34' E 004°25'0 4.6 26.4
2014-Aug-20 21:13N 37°34' E 004°25'0 0.2 26.4
2014-Aug-20 20:29N 37°34' E 004°25'0 0.0 26.4
2014-Aug-20 19:41N 37°34' E 004°25'0 0.6 26.6
2014-Aug-20 19:02N 37°34' E 004°25'0 0.0 26.6
2014-Aug-20 18:57N 37°34' E 004°25'0 0.6 26.6
2014-Aug-20 18:15N 37°34' E 004°25'0 6.5 26.7
2014-Aug-20 18:11N 37°34' E 004°25'1 0.8 26.7
2014-Aug-20 17:18N 37°33' E 004°25'0 0.0 26.7
2014-Aug-20 16:36N 37°33' E 004°25'0 0.0 26.7
2014-Aug-20 15:39N 37°33' E 004°25'0 3.2 26.8
2014-Aug-20 15:34N 37°33' E 004°25'0 0.0 26.8
2014-Aug-20 14:53N 37°33' E 004°25'1 0.8 26.8
2014-Aug-20 13:57N 37°33' E 004°26'0 1.7 26.7
2014-Aug-20 13:50N 37°33' E 004°26'0 0.0 26.7
2014-Aug-20 13:18N 37°33' E 004°26'0 0.0 26.7
2014-Aug-20 13:13N 37°33' E 004°26'0 0.3 26.6
2014-Aug-20 11:41N 37°33' E 004°26'0 1.5 26.4
2014-Aug-20 11:35N 37°32' E 004°26'0 3.2 26.4
2014-Aug-20 11:28N 37°32' E 004°26'0 0.1
2014-Aug-20 10:53N 37°32' E 004°26'0 4.1 26.3
2014-Aug-20 10:48N 37°32' E 004°26'0 0.0 26.3
2014-Aug-20 10:02N 37°32' E 004°26'1 1.5 26.2
2014-Aug-20 09:09N 37°31' E 004°28'1 1.0 26.1
2014-Aug-20 08:16N 37°32' E 004°28'1 0.4 26.0
2014-Aug-20 06:53N 37°32' E 004°29'0 0.0 26.0
2014-Aug-20 06:49N 37°32' E 004°29'0 0.4 26.0
2014-Aug-20 05:49N 37°32' E 004°29'0 6.6 26.0
2014-Aug-20 05:46N 37°33' E 004°29'0 0.0 26.0
2014-Aug-20 05:08N 37°33' E 004°29'131.0 26.0
2014-Aug-20 05:07N 37°33' E 004°29'0 0.0 26.0
2014-Aug-20 04:17N 37°33' E 004°29'0 0.0 26.0
2014-Aug-20 04:10N 37°33' E 004°29'0 0.8 26.0
2014-Aug-20 04:03N 37°33' E 004°29'0 0.0 26.0
2014-Aug-20 03:30N 37°33' E 004°29'1 0.3 26.0
2014-Aug-20 01:52N 37°34' E 004°29'0 0.0 26.0
2014-Aug-20 01:49N 37°34' E 004°29'0 4.2 26.0
2014-Aug-20 01:42N 37°33' E 004°29'0 0.0 26.0
2014-Aug-20 00:08N 37°33' E 004°29'111.5 26.0
2014-Aug-20 00:05N 37°33' E 004°29'0 0.0 26.0
2014-Aug-19 22:31N 37°33' E 004°29'0 0.0 26.1
2014-Aug-19 21:45N 37°33' E 004°29'0 0.0
2014-Aug-19 21:40N 37°33' E 004°29'0 0.0 26.1
2014-Aug-19 21:36N 37°33' E 004°29'0 0.0 26.1
2014-Aug-19 20:57N 37°33' E 004°29'0 0.0 26.1
2014-Aug-19 20:48N 37°33' E 004°29'0 0.0
2014-Aug-19 20:03N 37°33' E 004°29'0 2.4 26.2
2014-Aug-19 19:57N 37°33' E 004°29'0 0.0 26.2
2014-Aug-19 19:29N 37°33' E 004°29'1 0.9 26.2
2014-Aug-19 18:36N 37°32' E 004°29'0 0.0 26.3
2014-Aug-19 17:55N 37°32' E 004°29'0 0.0 26.4
2014-Aug-19 17:50N 37°32' E 004°29'0 0.8 26.4
2014-Aug-19 17:27N 37°32' E 004°30'0 0.7 26.5
2014-Aug-19 16:59N 37°32' E 004°30'0 0.1 26.5
2014-Aug-19 15:50N 37°32' E 004°30'0 0.8 26.6
2014-Aug-19 15:18N 37°31' E 004°30'0 0.0 26.7
2014-Aug-19 15:06N 37°31' E 004°30'0 0.0 26.7
2014-Aug-19 14:07N 37°31' E 004°30'1 0.8 26.6
2014-Aug-19 13:27N 37°32' E 004°31'0 0.3 26.5
2014-Aug-19 11:58N 37°32' E 004°31'0 0.0 26.3
2014-Aug-19 11:44N 37°32' E 004°31'0 4.6
2014-Aug-19 11:41N 37°32' E 004°31'0 0.7 26.2
2014-Aug-19 11:14N 37°32' E 004°32'0 0.0 26.1
2014-Aug-19 10:21N 37°32' E 004°32'1 1.4 26.0
2014-Aug-19 09:32N 37°33' E 004°30'0 0.0 26.0
2014-Aug-19 09:28N 37°33' E 004°30'0 0.0
2014-Aug-19 08:44N 37°33' E 004°30'0 0.0 26.0
2014-Aug-19 08:39N 37°33' E 004°30'1 0.9 26.0
2014-Aug-19 07:18N 37°32' E 004°32'0 0.1 25.9
2014-Aug-19 06:02N 37°32' E 004°32'1 6.1 25.9
2014-Aug-19 05:56N 37°33' E 004°32'0 0.0 25.9
2014-Aug-19 05:39N 37°33' E 004°32'1 4.4 25.9
2014-Aug-19 05:32N 37°33' E 004°31'0 0.0
2014-Aug-19 04:23N 37°33' E 004°31'1 1.5 25.9
2014-Aug-19 03:58N 37°32' E 004°32'1 2.0 25.9
2014-Aug-19 03:39N 37°33' E 004°32'1 0.6 25.9
2014-Aug-19 02:42N 37°33' E 004°31'0 0.0 25.9
2014-Aug-19 02:37N 37°33' E 004°31'0 0.0 25.9
2014-Aug-19 02:03N 37°33' E 004°31'116.4 25.9
2014-Aug-19 02:00N 37°33' E 004°32'0 0.0 25.9
2014-Aug-19 00:21N 37°33' E 004°32'0 0.0 25.9
2014-Aug-18 22:06N 37°33' E 004°32'1 5.0 25.9
2014-Aug-18 21:58N 37°32' E 004°32'0 0.0 25.9
2014-Aug-18 21:17N 37°32' E 004°32'115.5 26.0
2014-Aug-18 21:12N 37°33' E 004°33'0 0.5 26.0
2014-Aug-18 20:17N 37°32' E 004°33'0 0.0 26.0
2014-Aug-18 19:57N 37°32' E 004°33'1 1.3 26.0
2014-Aug-18 19:29N 37°33' E 004°34'0 0.0 26.0
2014-Aug-18 18:43N 37°33' E 004°34'0 0.0 26.0
2014-Aug-18 18:20N 37°33' E 004°34'0 0.2 26.0
2014-Aug-18 17:20N 37°32' E 004°33'0 0.0 26.0
2014-Aug-18 16:45N 37°32' E 004°33'0 0.6 26.0
2014-Aug-18 16:02N 37°32' E 004°33'0 0.3 26.0
2014-Aug-18 15:15N 37°32' E 004°33'0 0.1 26.0
2014-Aug-18 14:15N 37°32' E 004°33'1 1.3 26.0
2014-Aug-18 13:39N 37°31' E 004°33'1 0.5 26.0
2014-Aug-18 11:53N 37°31' E 004°34'0 1.4 26.0
2014-Aug-18 11:32N 37°31' E 004°34'0 0.2
2014-Aug-18 10:43N 37°31' E 004°34'0 0.0 25.9
2014-Aug-18 09:59N 37°31' E 004°34'0 0.0 25.9
2014-Aug-18 09:55N 37°31' E 004°34'0 0.3 25.9
2014-Aug-18 09:00N 37°30' E 004°35'1 1.4 25.9
2014-Aug-18 08:13N 37°30' E 004°36'0 0.0 25.9
2014-Aug-18 06:12N 37°30' E 004°36'112.1 25.9
2014-Aug-18 06:07N 37°30' E 004°37'0 0.0 25.9
2014-Aug-18 06:00N 37°30' E 004°37'0 0.0 25.9
2014-Aug-18 04:37N 37°30' E 004°37'0 0.9 25.9
2014-Aug-18 04:33N 37°30' E 004°37'1 8.3 25.9
2014-Aug-18 04:26N 37°30' E 004°36'0 2.4 25.9
2014-Aug-18 04:21N 37°30' E 004°36'2 3.7 25.9
2014-Aug-18 03:46N 37°28' E 004°36'0 0.0
2014-Aug-18 02:55N 37°28' E 004°36'236.9 25.9
2014-Aug-18 02:51N 37°30' E 004°37'0 0.0 25.9
2014-Aug-18 02:14N 37°30' E 004°37'1 4.5 26.0
2014-Aug-18 02:07N 37°30' E 004°37'0 0.0 26.0
2014-Aug-18 00:31N 37°30' E 004°37'0 4.2 26.0
2014-Aug-18 00:24N 37°30' E 004°37'0 0.0
2014-Aug-17 22:24N 37°30' E 004°37'0 5.9 26.0
2014-Aug-17 22:19N 37°29' E 004°37'0 0.0 26.0
2014-Aug-17 21:38N 37°29' E 004°37'0 2.3 26.0
2014-Aug-17 21:29N 37°29' E 004°37'0 0.0 26.0
2014-Aug-17 20:36N 37°29' E 004°37'0 0.0 26.0
2014-Aug-17 19:56N 37°29' E 004°37'110.3 26.0
2014-Aug-17 19:51N 37°29' E 004°38'0 0.0 26.0
2014-Aug-17 19:05N 37°29' E 004°38'0 0.0 26.1
2014-Aug-17 18:52N 37°29' E 004°38'0 0.3 26.1
2014-Aug-17 17:47N 37°29' E 004°38'1 1.1 26.1
2014-Aug-17 17:12N 37°28' E 004°38'0 5.4 26.1
2014-Aug-17 17:08N 37°28' E 004°38'0 0.0
2014-Aug-17 16:11N 37°28' E 004°38'022.4 26.1
2014-Aug-17 16:10N 37°28' E 004°37'1 0.5 26.1
2014-Aug-17 14:33N 37°28' E 004°38'0 0.5 26.2
2014-Aug-17 13:50N 37°28' E 004°39'0 0.3 26.2
2014-Aug-17 12:08N 37°28' E 004°38'1 7.6 26.1
2014-Aug-17 12:02N 37°28' E 004°39'0 0.0 26.1
2014-Aug-17 11:06N 37°28' E 004°39'0 1.7 26.1
2014-Aug-17 11:02N 37°28' E 004°39'1 0.4 26.1
2014-Aug-17 09:27N 37°28' E 004°39'0 0.0 26.1
2014-Aug-17 09:22N 37°28' E 004°39'1 0.6 26.1
2014-Aug-17 08:30N 37°28' E 004°39'0 0.6 26.1
2014-Aug-17 07:39N 37°28' E 004°39'0 0.0 26.1
2014-Aug-17 06:43N 37°28' E 004°39'0 1.1 26.0
2014-Aug-17 06:25N 37°28' E 004°39'1 0.8 26.1
2014-Aug-17 05:04N 37°28' E 004°38'1 4.6 26.1
2014-Aug-17 04:46N 37°28' E 004°40'0 0.0 26.1
2014-Aug-17 04:41N 37°28' E 004°40'0 0.0 26.1
2014-Aug-17 04:00N 37°28' E 004°40'0 0.0 26.1
2014-Aug-17 03:05N 37°28' E 004°40'0 0.0 26.1
2014-Aug-17 03:02N 37°28' E 004°40'0 0.6 26.1
2014-Aug-17 02:28N 37°28' E 004°39'0 0.0 26.2
2014-Aug-17 02:21N 37°28' E 004°39'0 0.3 26.2
2014-Aug-17 00:42N 37°28' E 004°39'220.7 26.2
2014-Aug-17 00:37N 37°26' E 004°38'0 0.0 26.2
2014-Aug-16 22:42N 37°26' E 004°38'0 0.0 26.2
2014-Aug-16 21:53N 37°26' E 004°38'0 0.0 26.3
2014-Aug-16 21:05N 37°26' E 004°38'118.7 26.3
2014-Aug-16 21:01N 37°26' E 004°40'0 0.0 26.3
2014-Aug-16 20:56N 37°26' E 004°40'0 0.1 26.3
2014-Aug-16 20:08N 37°26' E 004°39'1 1.3 26.3
2014-Aug-16 19:24N 37°26' E 004°41'0 0.0 26.3
2014-Aug-16 19:17N 37°26' E 004°41'0 0.0 26.3
2014-Aug-16 18:12N 37°26' E 004°41'0 0.0 26.3
2014-Aug-16 17:49N 37°26' E 004°41'1 6.1 26.3
2014-Aug-16 17:42N 37°26' E 004°41'0 0.0 26.3
2014-Aug-16 16:31N 37°26' E 004°41'0 0.0 26.4
2014-Aug-16 16:22N 37°26' E 004°41'0 0.3 26.4
2014-Aug-16 14:50N 37°26' E 004°42'0 3.7 26.4
2014-Aug-16 14:45N 37°26' E 004°42'1 6.1 26.4
2014-Aug-16 14:36N 37°26' E 004°43'0 0.3 26.4
2014-Aug-16 14:01N 37°26' E 004°43'1 0.4 26.4
2014-Aug-16 12:15N 37°27' E 004°43'0 0.0 26.4
2014-Aug-16 11:22N 37°27' E 004°43'1 1.8 26.3
2014-Aug-16 10:34N 37°26' E 004°41'0 0.0 26.3
2014-Aug-16 08:59N 37°26' E 004°41'1 5.9 26.3
2014-Aug-16 08:52N 37°25' E 004°41'0 0.0 26.3
2014-Aug-16 07:11N 37°25' E 004°41'0 0.0 26.4
2014-Aug-16 06:50N 37°25' E 004°41'0 0.0 26.4
2014-Aug-16 06:32N 37°25' E 004°41'0 0.0 26.4
2014-Aug-16 05:34N 37°25' E 004°41'0 0.7 26.4
2014-Aug-16 05:11N 37°25' E 004°40'1 3.4 26.4
2014-Aug-16 04:55N 37°25' E 004°41'0 0.0 26.4
2014-Aug-16 04:07N 37°25' E 004°41'0 0.0 26.4
2014-Aug-16 03:53N 37°25' E 004°41'0 0.7 26.4
2014-Aug-16 03:13N 37°24' E 004°40'1 1.1 26.4
2014-Aug-16 02:32N 37°24' E 004°41'215.2 26.4
2014-Aug-16 02:25N 37°23' E 004°43'0 0.0 26.5
2014-Aug-16 00:49N 37°23' E 004°43'0 0.0 26.5
2014-Aug-15 22:18N 37°23' E 004°43'1 9.0 26.6
2014-Aug-15 22:14N 37°24' E 004°42'0 0.0 26.6
2014-Aug-15 21:28N 37°24' E 004°42'0 3.3 26.6
2014-Aug-15 21:19N 37°24' E 004°43'2 2.1 26.6
2014-Aug-15 20:33N 37°25' E 004°44'0 0.0 26.6
2014-Aug-15 20:30N 37°25' E 004°44'0 0.0 26.6
2014-Aug-15 19:54N 37°25' E 004°44'1 0.4 26.6
2014-Aug-15 18:17N 37°25' E 004°43'0 0.0 26.6
2014-Aug-15 18:12N 37°25' E 004°43'0 0.0 26.7
2014-Aug-15 16:56N 37°25' E 004°43'0 0.0 26.7
2014-Aug-15 16:35N 37°25' E 004°43'1 0.5 26.7
2014-Aug-15 15:15N 37°25' E 004°42'1 2.0 26.7
2014-Aug-15 14:56N 37°25' E 004°42'1 1.6 26.7
2014-Aug-15 14:12N 37°24' E 004°41'0 0.0 26.7
2014-Aug-15 12:29N 37°24' E 004°41'0 6.1 26.7
2014-Aug-15 12:27N 37°24' E 004°41'0 0.7 26.7
2014-Aug-15 11:43N 37°24' E 004°41'0 0.0 26.6
2014-Aug-15 10:57N 37°24' E 004°41'1 0.7 26.6
2014-Aug-15 10:08N 37°23' E 004°41'0 1.4 26.6
2014-Aug-15 10:03N 37°23' E 004°41'0 0.6 26.6
2014-Aug-15 09:20N 37°23' E 004°40'0 1.6 26.6
2014-Aug-15 09:13N 37°23' E 004°40'0 0.0 26.6
2014-Aug-15 09:10N 37°23' E 004°40'1 1.3 26.6
2014-Aug-15 08:20N 37°22' E 004°41'0 0.0 26.6
2014-Aug-15 07:15N 37°22' E 004°41'0 0.0
2014-Aug-15 06:43N 37°22' E 004°41'0 0.0
2014-Aug-15 06:06N 37°22' E 004°41'1 1.3 26.6
2014-Aug-15 05:36N 37°22' E 004°42'0 0.3 26.6
2014-Aug-15 05:06N 37°22' E 004°42'0 0.4 26.6
2014-Aug-15 04:23N 37°22' E 004°42'027.0 26.6
2014-Aug-15 04:22N 37°22' E 004°42'0 0.0 26.6
2014-Aug-15 03:52N 37°22' E 004°42'0 0.0 26.6
2014-Aug-15 03:29N 37°22' E 004°42'0 6.7
2014-Aug-15 03:25N 37°22' E 004°43'2 2.2 26.7
2014-Aug-15 02:43N 37°23' E 004°42'0 0.0 26.7
2014-Aug-15 01:06N 37°23' E 004°42'112.5 26.7
2014-Aug-15 01:00N 37°24' E 004°41'0 0.0 26.7
2014-Aug-14 21:48N 37°24' E 004°41'110.1 26.8
2014-Aug-14 21:42N 37°24' E 004°43'124.8 26.8
2014-Aug-14 21:39N 37°24' E 004°41'0 0.0 26.8
2014-Aug-14 21:00N 37°24' E 004°41'1 5.5 26.8
2014-Aug-14 20:53N 37°24' E 004°41'0 0.0 26.8
2014-Aug-14 20:23N 37°24' E 004°41'0 0.0 26.9
2014-Aug-14 20:05N 37°24' E 004°41'0 5.8 26.9
2014-Aug-14 20:00N 37°24' E 004°40'0 0.0 26.9
2014-Aug-14 19:18N 37°24' E 004°40'0 0.0 26.9
2014-Aug-14 18:51N 37°24' E 004°40'0 0.0 26.9
2014-Aug-14 18:46N 37°24' E 004°40'1 0.4 26.9
2014-Aug-14 17:17N 37°23' E 004°39'0 0.0 26.9
2014-Aug-14 17:03N 37°23' E 004°39'1 3.6 27.0
2014-Aug-14 16:47N 37°23' E 004°39'0 0.0 27.0
2014-Aug-14 15:40N 37°23' E 004°39'0 0.5 27.1
2014-Aug-14 15:03N 37°22' E 004°39'1 1.1 27.1
2014-Aug-14 14:22N 37°22' E 004°39'0 0.0 27.1
2014-Aug-14 12:44N 37°22' E 004°39'0 1.9
2014-Aug-14 12:40N 37°21' E 004°39'1 8.5 27.0
2014-Aug-14 12:36N 37°21' E 004°40'0 0.0 27.0
2014-Aug-14 11:13N 37°21' E 004°40'0 0.0 27.0
2014-Aug-14 10:58N 37°21' E 004°40'0 0.1 27.0
2014-Aug-14 10:26N 37°21' E 004°40'1 8.9 27.0
2014-Aug-14 10:22N 37°22' E 004°40'0 0.0 27.0
2014-Aug-14 09:42N 37°22' E 004°40'0 0.0 27.0
2014-Aug-14 08:47N 37°22' E 004°40'0 2.8 27.0
2014-Aug-14 08:43N 37°22' E 004°40'1 1.2 27.0
2014-Aug-14 07:38N 37°23' E 004°40'0 0.0 27.0
2014-Aug-14 06:38N 37°23' E 004°40'2 4.0 27.0
2014-Aug-14 06:04N 37°23' E 004°43'0 0.0 27.0
2014-Aug-14 06:01N 37°23' E 004°43'3 3.9 27.0
2014-Aug-14 05:18N 37°24' E 004°40'0 0.0 27.0
2014-Aug-14 04:57N 37°24' E 004°40'0 0.0 27.0
2014-Aug-14 04:18N 37°24' E 004°40'0 0.2 27.0
2014-Aug-14 03:36N 37°24' E 004°40'1 1.7 27.0
2014-Aug-14 03:15N 37°24' E 004°39'0 0.0 27.0
2014-Aug-14 02:59N 37°24' E 004°39'0 0.0 27.0
2014-Aug-14 02:53N 37°24' E 004°39'1 0.7 27.0
2014-Aug-14 01:16N 37°25' E 004°38'0 4.5 27.0
2014-Aug-14 01:13N 37°25' E 004°38'2 0.6 27.0
2014-Aug-13 22:04N 37°24' E 004°35'0 0.0 27.2
2014-Aug-13 21:21N 37°24' E 004°35'0 2.4 27.2
2014-Aug-13 21:14N 37°24' E 004°35'0 0.0 27.2
2014-Aug-13 20:28N 37°24' E 004°35'0 1.1 27.2
2014-Aug-13 20:23N 37°24' E 004°35'0 0.5 27.2
2014-Aug-13 19:39N 37°24' E 004°36'0 3.7 27.2
2014-Aug-13 19:32N 37°24' E 004°36'0 0.0 27.2
2014-Aug-13 19:19N 37°24' E 004°36'0 0.1 27.2
2014-Aug-13 17:46N 37°24' E 004°36'0 2.4 27.2
2014-Aug-13 17:35N 37°23' E 004°36'0 0.5 27.2
2014-Aug-13 16:56N 37°24' E 004°36'0 0.0 27.3
2014-Aug-13 16:09N 37°24' E 004°36'0 0.0 27.3
2014-Aug-13 15:16N 37°24' E 004°36'0 0.6 27.3
2014-Aug-13 14:31N 37°24' E 004°37'1 0.6 27.2
2014-Aug-13 12:54N 37°25' E 004°36'1 0.5 27.2
2014-Aug-13 10:45N 37°25' E 004°36'1 0.8 27.2
2014-Aug-13 10:01N 37°26' E 004°36'0 0.0 27.2
2014-Aug-13 09:58N 37°26' E 004°36'1 0.8 27.2
2014-Aug-13 09:10N 37°26' E 004°35'0 0.0 27.1
2014-Aug-13 09:05N 37°26' E 004°35'1 0.7 27.1
2014-Aug-13 08:20N 37°27' E 004°35'0 2.2 27.1
2014-Aug-13 08:12N 37°27' E 004°35'0 0.0 27.1
2014-Aug-13 07:08N 37°27' E 004°35'0 0.0 27.1
2014-Aug-13 06:29N 37°27' E 004°35'0 0.0 27.1
2014-Aug-13 06:24N 37°27' E 004°35'1 0.5 27.1
2014-Aug-13 03:48N 37°27' E 004°33'0 0.4 27.2
2014-Aug-13 03:10N 37°27' E 004°33'0 0.0 27.3
2014-Aug-13 03:06N 37°27' E 004°33'1 4.8 27.3
2014-Aug-13 02:59N 37°26' E 004°33'0 0.0
2014-Aug-13 01:27N 37°26' E 004°33'0 0.0 27.5
2014-Aug-13 01:24N 37°26' E 004°33'1 0.3 27.5
2014-Aug-12 22:29N 37°25' E 004°33'0 0.7 27.7
2014-Aug-12 22:25N 37°25' E 004°33'0 0.0 27.7
2014-Aug-12 21:41N 37°25' E 004°33'0 5.2 27.9
2014-Aug-12 21:36N 37°26' E 004°33'0 0.0 27.9
2014-Aug-12 20:50N 37°26' E 004°33'0 0.0 27.9
2014-Aug-12 20:43N 37°26' E 004°33'0 0.2 28.0
2014-Aug-12 19:55N 37°26' E 004°33'0 4.7 28.0
2014-Aug-12 19:51N 37°26' E 004°33'121.9
2014-Aug-12 19:48N 37°25' E 004°34'0 0.0 28.0
2014-Aug-12 19:07N 37°25' E 004°34'1 8.4 28.0
2014-Aug-12 19:02N 37°26' E 004°34'0 0.0
2014-Aug-12 18:09N 37°26' E 004°34'0 0.0 28.2
2014-Aug-12 18:07N 37°26' E 004°34'0 0.4 28.2
2014-Aug-12 17:05N 37°26' E 004°34'1 1.4 28.1
2014-Aug-12 16:32N 37°27' E 004°34'0 0.0 28.3
2014-Aug-12 15:28N 37°27' E 004°34'0 4.9 28.6
2014-Aug-12 15:23N 37°27' E 004°34'0 0.0 28.6
2014-Aug-12 14:49N 37°27' E 004°34'0 5.2 28.5
2014-Aug-12 14:44N 37°28' E 004°34'0 0.0 28.4
2014-Aug-12 13:48N 37°28' E 004°34'0 5.6 28.4
2014-Aug-12 13:44N 37°28' E 004°33'0 0.0 28.4
2014-Aug-12 13:05N 37°28' E 004°33'0 0.0 28.5
2014-Aug-12 13:02N 37°28' E 004°33'1 0.5 28.7
2014-Aug-12 11:09N 37°28' E 004°32'0 4.3 27.6
2014-Aug-12 11:03N 37°29' E 004°32'0 0.0 27.6
2014-Aug-12 10:21N 37°29' E 004°32'0 4.0 27.5
2014-Aug-12 10:16N 37°29' E 004°32'0 0.0 27.5
2014-Aug-12 09:26N 37°29' E 004°32'1 0.7 27.4
2014-Aug-12 08:33N 37°28' E 004°31'   27.2

Dump ship's entire track history